sensor_id;sensor_type;location;lat;lon;timestamp;temperature;humidity
11280;DHT22;5696;50.928;6.960;2022-07-06T05:02:06;26.80;82.80
11280;DHT22;5696;50.928;6.960;2022-07-06T05:04:52;27.40;74.40
11280;DHT22;5696;50.928;6.960;2022-07-06T05:07:37;27.90;72.60
11280;DHT22;5696;50.928;6.960;2022-07-06T05:10:15;28.30;67.80
11280;DHT22;5696;50.928;6.960;2022-07-06T05:12:41;28.80;65.40
11280;DHT22;5696;50.928;6.960;2022-07-06T05:15:08;29.20;62.20
11280;DHT22;5696;50.928;6.960;2022-07-06T05:17:33;28.90;61.20
11280;DHT22;5696;50.928;6.960;2022-07-06T05:20:11;29.50;61.40
11280;DHT22;5696;50.928;6.960;2022-07-06T05:22:37;30.10;58.30
11280;DHT22;5696;50.928;6.960;2022-07-06T05:25:02;30.10;58.40
11280;DHT22;5696;50.928;6.960;2022-07-06T05:27:28;30.10;57.10
11280;DHT22;5696;50.928;6.960;2022-07-06T05:29:58;30.30;57.80
11280;DHT22;5696;50.928;6.960;2022-07-06T05:32:24;30.90;56.60
11280;DHT22;5696;50.928;6.960;2022-07-06T05:34:50;30.20;54.50
11280;DHT22;5696;50.928;6.960;2022-07-06T05:37:16;28.40;56.60
11280;DHT22;5696;50.928;6.960;2022-07-06T05:39:42;26.70;59.70
11280;DHT22;5696;50.928;6.960;2022-07-06T05:42:10;25.80;62.40
11280;DHT22;5696;50.928;6.960;2022-07-06T05:44:36;25.10;64.60
11280;DHT22;5696;50.928;6.960;2022-07-06T05:47:01;24.10;66.50
11280;DHT22;5696;50.928;6.960;2022-07-06T05:49:46;23.10;70.20
11280;DHT22;5696;50.928;6.960;2022-07-06T05:52:30;22.50;74.70
11280;DHT22;5696;50.928;6.960;2022-07-06T05:54:55;22.40;75.70
11280;DHT22;5696;50.928;6.960;2022-07-06T05:57:21;22.90;76.60
11280;DHT22;5696;50.928;6.960;2022-07-06T05:59:47;22.70;77.60
11280;DHT22;5696;50.928;6.960;2022-07-06T06:02:12;23.20;77.40
11280;DHT22;5696;50.928;6.960;2022-07-06T06:04:38;24.60;75.60
11280;DHT22;5696;50.928;6.960;2022-07-06T06:07:04;24.30;71.80
11280;DHT22;5696;50.928;6.960;2022-07-06T06:09:29;24.10;74.70
11280;DHT22;5696;50.928;6.960;2022-07-06T06:11:55;25.50;72.90
11280;DHT22;5696;50.928;6.960;2022-07-06T06:14:20;25.40;69.80
11280;DHT22;5696;50.928;6.960;2022-07-06T06:16:46;26.80;72.80
11280;DHT22;5696;50.928;6.960;2022-07-06T06:19:11;27.80;66.90
11280;DHT22;5696;50.928;6.960;2022-07-06T06:21:37;28.20;63.50
11280;DHT22;5696;50.928;6.960;2022-07-06T06:24:03;27.90;63.10
11280;DHT22;5696;50.928;6.960;2022-07-06T06:26:28;29.20;62.10
11280;DHT22;5696;50.928;6.960;2022-07-06T06:28:54;30.00;58.60
11280;DHT22;5696;50.928;6.960;2022-07-06T06:31:19;29.90;57.00
11280;DHT22;5696;50.928;6.960;2022-07-06T06:33:45;29.90;57.90
11280;DHT22;5696;50.928;6.960;2022-07-06T06:36:11;31.70;54.60
11280;DHT22;5696;50.928;6.960;2022-07-06T06:38:38;32.60;52.50
11280;DHT22;5696;50.928;6.960;2022-07-06T06:41:03;33.70;51.40
11280;DHT22;5696;50.928;6.960;2022-07-06T06:43:29;33.60;50.00
11280;DHT22;5696;50.928;6.960;2022-07-06T06:45:55;31.50;50.40
11280;DHT22;5696;50.928;6.960;2022-07-06T06:48:20;31.20;52.80
11280;DHT22;5696;50.928;6.960;2022-07-06T06:50:46;32.20;51.80
11280;DHT22;5696;50.928;6.960;2022-07-06T06:53:12;33.30;49.40
11280;DHT22;5696;50.928;6.960;2022-07-06T06:55:37;32.80;48.70
11280;DHT22;5696;50.928;6.960;2022-07-06T06:58:03;32.90;48.50
11280;DHT22;5696;50.928;6.960;2022-07-06T07:00:29;32.40;48.90
11280;DHT22;5696;50.928;6.960;2022-07-06T07:02:55;32.00;48.20
11280;DHT22;5696;50.928;6.960;2022-07-06T07:05:20;31.70;49.80
11280;DHT22;5696;50.928;6.960;2022-07-06T07:07:46;33.00;48.00
11280;DHT22;5696;50.928;6.960;2022-07-06T07:10:12;33.30;47.10
11280;DHT22;5696;50.928;6.960;2022-07-06T07:12:45;33.80;46.10
11280;DHT22;5696;50.928;6.960;2022-07-06T07:15:11;34.60;46.20
11280;DHT22;5696;50.928;6.960;2022-07-06T07:17:37;33.20;45.40
11280;DHT22;5696;50.928;6.960;2022-07-06T07:20:04;31.30;48.30
11280;DHT22;5696;50.928;6.960;2022-07-06T07:22:30;32.80;47.50
11280;DHT22;5696;50.928;6.960;2022-07-06T07:24:55;32.80;45.10
11280;DHT22;5696;50.928;6.960;2022-07-06T07:27:21;31.30;47.80
11280;DHT22;5696;50.928;6.960;2022-07-06T07:29:46;30.10;49.40
11280;DHT22;5696;50.928;6.960;2022-07-06T07:32:12;28.40;51.30
11280;DHT22;5696;50.928;6.960;2022-07-06T07:34:38;28.20;52.80
11280;DHT22;5696;50.928;6.960;2022-07-06T07:37:03;28.10;53.60
11280;DHT22;5696;50.928;6.960;2022-07-06T07:39:29;28.10;53.40
11280;DHT22;5696;50.928;6.960;2022-07-06T07:41:54;27.70;54.30
11280;DHT22;5696;50.928;6.960;2022-07-06T07:44:20;28.20;53.00
11280;DHT22;5696;50.928;6.960;2022-07-06T07:46:46;28.20;52.20
11280;DHT22;5696;50.928;6.960;2022-07-06T07:49:11;26.80;53.70
11280;DHT22;5696;50.928;6.960;2022-07-06T07:51:37;25.90;55.80
11280;DHT22;5696;50.928;6.960;2022-07-06T07:54:03;25.40;57.00
11280;DHT22;5696;50.928;6.960;2022-07-06T07:56:35;25.30;56.20
11280;DHT22;5696;50.928;6.960;2022-07-06T07:59:19;24.90;57.30
11280;DHT22;5696;50.928;6.960;2022-07-06T08:02:04;25.20;57.80
11280;DHT22;5696;50.928;6.960;2022-07-06T08:04:29;25.00;56.10
11280;DHT22;5696;50.928;6.960;2022-07-06T08:06:55;24.80;57.60
11280;DHT22;5696;50.928;6.960;2022-07-06T08:09:20;24.90;58.10
11280;DHT22;5696;50.928;6.960;2022-07-06T08:11:47;24.80;59.20
11280;DHT22;5696;50.928;6.960;2022-07-06T08:14:12;24.50;58.50
11280;DHT22;5696;50.928;6.960;2022-07-06T08:16:40;24.00;60.00
11280;DHT22;5696;50.928;6.960;2022-07-06T08:19:06;24.00;60.30
11280;DHT22;5696;50.928;6.960;2022-07-06T08:21:31;24.30;60.00
11280;DHT22;5696;50.928;6.960;2022-07-06T08:23:57;25.00;59.50
11280;DHT22;5696;50.928;6.960;2022-07-06T08:26:25;25.70;56.80
11280;DHT22;5696;50.928;6.960;2022-07-06T08:28:51;25.90;54.90
11280;DHT22;5696;50.928;6.960;2022-07-06T08:31:17;25.70;55.90
11280;DHT22;5696;50.928;6.960;2022-07-06T08:33:43;25.30;56.50
11280;DHT22;5696;50.928;6.960;2022-07-06T08:36:08;24.80;57.30
11280;DHT22;5696;50.928;6.960;2022-07-06T08:38:34;24.30;59.10
11280;DHT22;5696;50.928;6.960;2022-07-06T08:41:00;24.20;60.60
11280;DHT22;5696;50.928;6.960;2022-07-06T08:43:25;24.30;59.60
11280;DHT22;5696;50.928;6.960;2022-07-06T08:45:53;24.30;59.50
11280;DHT22;5696;50.928;6.960;2022-07-06T08:48:20;24.50;59.00
11280;DHT22;5696;50.928;6.960;2022-07-06T08:50:48;24.50;59.30
11280;DHT22;5696;50.928;6.960;2022-07-06T08:53:17;24.50;59.50
11280;DHT22;5696;50.928;6.960;2022-07-06T08:55:43;24.10;59.40
11280;DHT22;5696;50.928;6.960;2022-07-06T08:58:09;24.20;58.20
11280;DHT22;5696;50.928;6.960;2022-07-06T09:00:35;24.40;59.00
11280;DHT22;5696;50.928;6.960;2022-07-06T09:03:01;24.60;59.50
11280;DHT22;5696;50.928;6.960;2022-07-06T09:05:27;24.50;59.60
11280;DHT22;5696;50.928;6.960;2022-07-06T09:07:53;24.70;59.30
11280;DHT22;5696;50.928;6.960;2022-07-06T09:10:21;25.00;59.20
11280;DHT22;5696;50.928;6.960;2022-07-06T09:12:52;25.10;58.10
11280;DHT22;5696;50.928;6.960;2022-07-06T09:15:18;25.20;57.70
11280;DHT22;5696;50.928;6.960;2022-07-06T09:17:44;25.30;57.60
11280;DHT22;5696;50.928;6.960;2022-07-06T09:20:11;25.30;57.20
11280;DHT22;5696;50.928;6.960;2022-07-06T09:22:37;25.30;58.20
11280;DHT22;5696;50.928;6.960;2022-07-06T09:25:05;25.40;58.20
11280;DHT22;5696;50.928;6.960;2022-07-06T09:27:31;25.20;57.70
11280;DHT22;5696;50.928;6.960;2022-07-06T09:30:00;25.00;58.40
11280;DHT22;5696;50.928;6.960;2022-07-06T09:32:27;24.80;58.90
11280;DHT22;5696;50.928;6.960;2022-07-06T09:34:52;24.70;59.60
11280;DHT22;5696;50.928;6.960;2022-07-06T09:37:21;24.70;59.90
11280;DHT22;5696;50.928;6.960;2022-07-06T09:39:48;24.80;60.00
11280;DHT22;5696;50.928;6.960;2022-07-06T09:42:13;24.90;59.80
11280;DHT22;5696;50.928;6.960;2022-07-06T09:44:41;25.00;58.20
11280;DHT22;5696;50.928;6.960;2022-07-06T09:47:08;25.20;58.40
11280;DHT22;5696;50.928;6.960;2022-07-06T09:49:35;25.50;58.30
11280;DHT22;5696;50.928;6.960;2022-07-06T09:52:03;25.70;57.70
11280;DHT22;5696;50.928;6.960;2022-07-06T09:54:30;25.70;57.50
11280;DHT22;5696;50.928;6.960;2022-07-06T09:56:56;25.80;57.70
11280;DHT22;5696;50.928;6.960;2022-07-06T09:59:25;25.80;57.60
11280;DHT22;5696;50.928;6.960;2022-07-06T10:01:54;26.10;57.00
11280;DHT22;5696;50.928;6.960;2022-07-06T10:04:20;26.50;56.10
11280;DHT22;5696;50.928;6.960;2022-07-06T10:06:47;26.60;56.50
11280;DHT22;5696;50.928;6.960;2022-07-06T10:09:14;26.70;56.40
11280;DHT22;5696;50.928;6.960;2022-07-06T10:11:51;26.70;56.50
11280;DHT22;5696;50.928;6.960;2022-07-06T10:14:22;26.50;57.20
11280;DHT22;5696;50.928;6.960;2022-07-06T10:16:48;26.30;56.80
11280;DHT22;5696;50.928;6.960;2022-07-06T10:19:16;25.80;57.20
11280;DHT22;5696;50.928;6.960;2022-07-06T10:21:42;25.50;58.40
11280;DHT22;5696;50.928;6.960;2022-07-06T10:24:09;25.60;59.00
11280;DHT22;5696;50.928;6.960;2022-07-06T10:26:36;25.70;57.70
11280;DHT22;5696;50.928;6.960;2022-07-06T10:29:03;25.80;56.30
11280;DHT22;5696;50.928;6.960;2022-07-06T10:31:31;25.80;56.60
11280;DHT22;5696;50.928;6.960;2022-07-06T10:33:59;26.00;56.20
11280;DHT22;5696;50.928;6.960;2022-07-06T10:36:25;26.30;56.60
11280;DHT22;5696;50.928;6.960;2022-07-06T10:38:52;26.20;56.50
11280;DHT22;5696;50.928;6.960;2022-07-06T10:41:30;26.20;56.90
11280;DHT22;5696;50.928;6.960;2022-07-06T10:43:56;26.20;56.50
11280;DHT22;5696;50.928;6.960;2022-07-06T10:46:23;26.00;57.20
11280;DHT22;5696;50.928;6.960;2022-07-06T10:48:52;25.50;55.40
11280;DHT22;5696;50.928;6.960;2022-07-06T10:51:23;25.40;56.20
11280;DHT22;5696;50.928;6.960;2022-07-06T10:54:00;25.50;57.10
11280;DHT22;5696;50.928;6.960;2022-07-06T10:56:45;25.80;57.10
11280;DHT22;5696;50.928;6.960;2022-07-06T10:59:21;25.70;56.20
11280;DHT22;5696;50.928;6.960;2022-07-06T11:04:39;25.80;55.50
11280;DHT22;5696;50.928;6.960;2022-07-06T11:07:26;25.80;55.20
11280;DHT22;5696;50.928;6.960;2022-07-06T11:12:21;26.20;55.00
11280;DHT22;5696;50.928;6.960;2022-07-06T11:14:48;26.30;55.00
11280;DHT22;5696;50.928;6.960;2022-07-06T11:17:15;26.40;54.30
11280;DHT22;5696;50.928;6.960;2022-07-06T11:19:55;26.40;55.50
11280;DHT22;5696;50.928;6.960;2022-07-06T11:22:21;26.30;54.40
11280;DHT22;5696;50.928;6.960;2022-07-06T11:24:50;26.20;54.30
11280;DHT22;5696;50.928;6.960;2022-07-06T11:27:17;26.10;55.00
11280;DHT22;5696;50.928;6.960;2022-07-06T11:29:43;26.10;54.20
11280;DHT22;5696;50.928;6.960;2022-07-06T11:32:11;25.90;52.10
11280;DHT22;5696;50.928;6.960;2022-07-06T11:34:41;25.70;52.20
11280;DHT22;5696;50.928;6.960;2022-07-06T11:37:12;25.20;53.00
11280;DHT22;5696;50.928;6.960;2022-07-06T11:39:40;25.30;53.30
11280;DHT22;5696;50.928;6.960;2022-07-06T11:42:07;24.70;53.30
11280;DHT22;5696;50.928;6.960;2022-07-06T11:44:34;24.00;54.50
11280;DHT22;5696;50.928;6.960;2022-07-06T11:47:01;23.90;55.50
11280;DHT22;5696;50.928;6.960;2022-07-06T11:49:30;24.50;55.60
11280;DHT22;5696;50.928;6.960;2022-07-06T11:51:56;25.00;55.60
11280;DHT22;5696;50.928;6.960;2022-07-06T11:54:23;25.20;55.70
11280;DHT22;5696;50.928;6.960;2022-07-06T11:56:51;25.50;55.10
11280;DHT22;5696;50.928;6.960;2022-07-06T11:59:21;25.80;54.80
11280;DHT22;5696;50.928;6.960;2022-07-06T12:01:48;25.80;54.10
11280;DHT22;5696;50.928;6.960;2022-07-06T12:04:14;25.80;54.40
11280;DHT22;5696;50.928;6.960;2022-07-06T12:06:40;26.00;54.10
11280;DHT22;5696;50.928;6.960;2022-07-06T12:09:11;26.40;53.60
11280;DHT22;5696;50.928;6.960;2022-07-06T12:11:37;27.00;53.00
11280;DHT22;5696;50.928;6.960;2022-07-06T12:14:16;27.70;51.60
11280;DHT22;5696;50.928;6.960;2022-07-06T12:16:43;28.00;51.80
11280;DHT22;5696;50.928;6.960;2022-07-06T12:19:10;28.40;51.40
11280;DHT22;5696;50.928;6.960;2022-07-06T12:21:50;28.50;50.50
11280;DHT22;5696;50.928;6.960;2022-07-06T12:24:26;28.60;50.40
11280;DHT22;5696;50.928;6.960;2022-07-06T12:26:54;28.50;50.60
11280;DHT22;5696;50.928;6.960;2022-07-06T12:29:20;28.10;51.10
11280;DHT22;5696;50.928;6.960;2022-07-06T12:34:17;27.40;52.30
11280;DHT22;5696;50.928;6.960;2022-07-06T12:36:48;27.20;52.60
11280;DHT22;5696;50.928;6.960;2022-07-06T12:39:19;27.00;51.60
11280;DHT22;5696;50.928;6.960;2022-07-06T12:41:50;26.80;51.70
11280;DHT22;5696;50.928;6.960;2022-07-06T12:44:23;26.80;51.80
11280;DHT22;5696;50.928;6.960;2022-07-06T12:46:59;27.20;51.20
11280;DHT22;5696;50.928;6.960;2022-07-06T12:49:26;27.30;50.80
11280;DHT22;5696;50.928;6.960;2022-07-06T12:54:33;27.70;51.10
11280;DHT22;5696;50.928;6.960;2022-07-06T12:57:04;27.80;51.50
11280;DHT22;5696;50.928;6.960;2022-07-06T12:59:32;27.90;50.40
11280;DHT22;5696;50.928;6.960;2022-07-06T13:01:58;27.70;51.20
11280;DHT22;5696;50.928;6.960;2022-07-06T13:04:25;27.70;51.00
11280;DHT22;5696;50.928;6.960;2022-07-06T13:06:51;27.80;51.00
11280;DHT22;5696;50.928;6.960;2022-07-06T13:09:17;27.60;50.30
11280;DHT22;5696;50.928;6.960;2022-07-06T13:11:45;27.70;50.60
11280;DHT22;5696;50.928;6.960;2022-07-06T13:14:11;27.70;50.70
11280;DHT22;5696;50.928;6.960;2022-07-06T13:16:37;27.50;50.40
11280;DHT22;5696;50.928;6.960;2022-07-06T13:19:02;27.60;50.80
11280;DHT22;5696;50.928;6.960;2022-07-06T13:21:28;27.60;51.10
11280;DHT22;5696;50.928;6.960;2022-07-06T13:23:54;27.80;50.60
11280;DHT22;5696;50.928;6.960;2022-07-06T13:26:20;28.10;50.30
11280;DHT22;5696;50.928;6.960;2022-07-06T13:28:45;28.20;49.70
11280;DHT22;5696;50.928;6.960;2022-07-06T13:31:11;28.20;49.90
11280;DHT22;5696;50.928;6.960;2022-07-06T13:33:37;28.20;49.60
11280;DHT22;5696;50.928;6.960;2022-07-06T13:36:03;28.20;49.10
11280;DHT22;5696;50.928;6.960;2022-07-06T13:38:29;28.00;48.80
11280;DHT22;5696;50.928;6.960;2022-07-06T13:40:55;27.70;49.20
11280;DHT22;5696;50.928;6.960;2022-07-06T13:43:20;27.10;50.80
11280;DHT22;5696;50.928;6.960;2022-07-06T13:45:47;26.60;52.00
11280;DHT22;5696;50.928;6.960;2022-07-06T13:48:12;26.80;52.20
11280;DHT22;5696;50.928;6.960;2022-07-06T13:50:38;27.00;52.30
11280;DHT22;5696;50.928;6.960;2022-07-06T13:53:04;26.90;51.20
11280;DHT22;5696;50.928;6.960;2022-07-06T13:55:33;26.80;50.80
11280;DHT22;5696;50.928;6.960;2022-07-06T13:57:58;26.80;50.70
11280;DHT22;5696;50.928;6.960;2022-07-06T14:00:24;26.70;50.80
11280;DHT22;5696;50.928;6.960;2022-07-06T14:02:50;26.70;52.20
11280;DHT22;5696;50.928;6.960;2022-07-06T14:05:16;27.00;51.70
11280;DHT22;5696;50.928;6.960;2022-07-06T14:07:41;27.30;51.50
11280;DHT22;5696;50.928;6.960;2022-07-06T14:10:07;27.30;51.60
11280;DHT22;5696;50.928;6.960;2022-07-06T14:12:33;27.10;51.40
11280;DHT22;5696;50.928;6.960;2022-07-06T14:14:58;26.80;52.00
11280;DHT22;5696;50.928;6.960;2022-07-06T14:17:25;26.80;52.20
11280;DHT22;5696;50.928;6.960;2022-07-06T14:19:51;26.70;52.40
11280;DHT22;5696;50.928;6.960;2022-07-06T14:22:17;26.50;52.00
11280;DHT22;5696;50.928;6.960;2022-07-06T14:24:42;26.40;52.60
11280;DHT22;5696;50.928;6.960;2022-07-06T14:27:08;26.10;53.00
11280;DHT22;5696;50.928;6.960;2022-07-06T14:29:34;26.10;53.30
11280;DHT22;5696;50.928;6.960;2022-07-06T14:31:59;25.90;53.80
11280;DHT22;5696;50.928;6.960;2022-07-06T14:34:25;26.10;53.60
11280;DHT22;5696;50.928;6.960;2022-07-06T14:36:51;26.10;53.30
11280;DHT22;5696;50.928;6.960;2022-07-06T14:39:17;26.00;52.90
11280;DHT22;5696;50.928;6.960;2022-07-06T14:41:43;25.70;53.50
11280;DHT22;5696;50.928;6.960;2022-07-06T14:44:08;25.50;53.70
11280;DHT22;5696;50.928;6.960;2022-07-06T14:46:34;25.10;53.70
11280;DHT22;5696;50.928;6.960;2022-07-06T14:49:00;24.90;55.10
11280;DHT22;5696;50.928;6.960;2022-07-06T14:51:26;25.00;55.10
11280;DHT22;5696;50.928;6.960;2022-07-06T14:53:51;25.20;54.50
11280;DHT22;5696;50.928;6.960;2022-07-06T14:56:17;25.30;54.20
11280;DHT22;5696;50.928;6.960;2022-07-06T14:58:42;25.40;54.40
11280;DHT22;5696;50.928;6.960;2022-07-06T15:01:09;25.60;53.80
11280;DHT22;5696;50.928;6.960;2022-07-06T15:03:35;25.70;53.40
11280;DHT22;5696;50.928;6.960;2022-07-06T15:06:00;25.80;53.40
11280;DHT22;5696;50.928;6.960;2022-07-06T15:08:26;25.90;53.30
11280;DHT22;5696;50.928;6.960;2022-07-06T15:10:52;25.50;53.80
11280;DHT22;5696;50.928;6.960;2022-07-06T15:13:18;25.40;54.10
11280;DHT22;5696;50.928;6.960;2022-07-06T15:15:43;25.40;54.70
11280;DHT22;5696;50.928;6.960;2022-07-06T15:18:09;25.40;54.00
11280;DHT22;5696;50.928;6.960;2022-07-06T15:20:35;25.50;53.80
11280;DHT22;5696;50.928;6.960;2022-07-06T15:23:00;25.40;53.90
11280;DHT22;5696;50.928;6.960;2022-07-06T15:25:26;25.60;54.30
11280;DHT22;5696;50.928;6.960;2022-07-06T15:27:52;25.80;54.00
11280;DHT22;5696;50.928;6.960;2022-07-06T15:30:18;25.70;53.50
11280;DHT22;5696;50.928;6.960;2022-07-06T15:32:43;25.40;53.70
11280;DHT22;5696;50.928;6.960;2022-07-06T15:35:09;25.10;54.20
11280;DHT22;5696;50.928;6.960;2022-07-06T15:37:35;25.30;54.70
11280;DHT22;5696;50.928;6.960;2022-07-06T15:40:02;25.50;54.80
11280;DHT22;5696;50.928;6.960;2022-07-06T15:42:28;25.50;54.00
11280;DHT22;5696;50.928;6.960;2022-07-06T15:44:54;25.40;54.30
11280;DHT22;5696;50.928;6.960;2022-07-06T15:47:20;25.40;54.30
11280;DHT22;5696;50.928;6.960;2022-07-06T15:49:48;25.30;54.00
11280;DHT22;5696;50.928;6.960;2022-07-06T15:52:14;25.30;53.40
11280;DHT22;5696;50.928;6.960;2022-07-06T15:54:41;25.40;53.70
11280;DHT22;5696;50.928;6.960;2022-07-06T15:57:07;25.30;54.00
11280;DHT22;5696;50.928;6.960;2022-07-06T15:59:32;25.50;53.80
11280;DHT22;5696;50.928;6.960;2022-07-06T16:01:58;25.70;53.50
11280;DHT22;5696;50.928;6.960;2022-07-06T16:04:24;25.60;53.00
11280;DHT22;5696;50.928;6.960;2022-07-06T16:06:50;25.40;53.80
11280;DHT22;5696;50.928;6.960;2022-07-06T16:09:15;25.30;54.10
11280;DHT22;5696;50.928;6.960;2022-07-06T16:11:42;25.20;54.60
11280;DHT22;5696;50.928;6.960;2022-07-06T16:14:07;25.10;54.40
11280;DHT22;5696;50.928;6.960;2022-07-06T16:16:34;24.80;54.60
11280;DHT22;5696;50.928;6.960;2022-07-06T16:19:00;24.70;55.40
11280;DHT22;5696;50.928;6.960;2022-07-06T16:21:26;24.70;55.00
11280;DHT22;5696;50.928;6.960;2022-07-06T16:23:51;24.60;55.10
11280;DHT22;5696;50.928;6.960;2022-07-06T16:26:17;24.50;55.10
11280;DHT22;5696;50.928;6.960;2022-07-06T16:28:43;24.30;55.50
11280;DHT22;5696;50.928;6.960;2022-07-06T16:31:08;24.30;55.40
11280;DHT22;5696;50.928;6.960;2022-07-06T16:33:34;24.20;55.60
11280;DHT22;5696;50.928;6.960;2022-07-06T16:36:04;24.30;55.70
11280;DHT22;5696;50.928;6.960;2022-07-06T16:38:31;24.40;55.80
11280;DHT22;5696;50.928;6.960;2022-07-06T16:40:56;24.30;56.00
11280;DHT22;5696;50.928;6.960;2022-07-06T16:43:22;24.20;55.80
11280;DHT22;5696;50.928;6.960;2022-07-06T16:45:48;24.10;56.20
11280;DHT22;5696;50.928;6.960;2022-07-06T16:48:16;24.10;56.10
11280;DHT22;5696;50.928;6.960;2022-07-06T16:50:42;24.10;56.40
11280;DHT22;5696;50.928;6.960;2022-07-06T16:53:08;24.10;56.70
11280;DHT22;5696;50.928;6.960;2022-07-06T16:55:34;24.10;56.60
11280;DHT22;5696;50.928;6.960;2022-07-06T16:58:00;24.20;56.60
11280;DHT22;5696;50.928;6.960;2022-07-06T17:00:26;24.10;56.30
11280;DHT22;5696;50.928;6.960;2022-07-06T17:02:52;24.10;56.70
11280;DHT22;5696;50.928;6.960;2022-07-06T17:05:18;24.10;56.00
11280;DHT22;5696;50.928;6.960;2022-07-06T17:07:44;24.10;56.20
11280;DHT22;5696;50.928;6.960;2022-07-06T17:10:10;24.10;56.20
11280;DHT22;5696;50.928;6.960;2022-07-06T17:12:35;24.10;55.80
11280;DHT22;5696;50.928;6.960;2022-07-06T17:15:01;24.00;55.80
11280;DHT22;5696;50.928;6.960;2022-07-06T17:17:27;24.10;56.10
11280;DHT22;5696;50.928;6.960;2022-07-06T17:19:55;24.00;56.30
11280;DHT22;5696;50.928;6.960;2022-07-06T17:22:21;23.90;56.30
11280;DHT22;5696;50.928;6.960;2022-07-06T17:24:47;23.90;57.10
11280;DHT22;5696;50.928;6.960;2022-07-06T17:27:13;23.90;56.70
11280;DHT22;5696;50.928;6.960;2022-07-06T17:29:40;24.00;56.70
11280;DHT22;5696;50.928;6.960;2022-07-06T17:32:07;24.10;56.60
11280;DHT22;5696;50.928;6.960;2022-07-06T17:34:33;24.00;56.20
11280;DHT22;5696;50.928;6.960;2022-07-06T17:36:59;24.10;56.50
11280;DHT22;5696;50.928;6.960;2022-07-06T17:39:24;24.20;56.60
11280;DHT22;5696;50.928;6.960;2022-07-06T17:41:50;24.20;56.50
11280;DHT22;5696;50.928;6.960;2022-07-06T17:44:16;24.10;56.80
11280;DHT22;5696;50.928;6.960;2022-07-06T17:46:41;24.00;57.50
11280;DHT22;5696;50.928;6.960;2022-07-06T17:49:07;24.00;57.60
11280;DHT22;5696;50.928;6.960;2022-07-06T17:51:34;23.90;57.50
11280;DHT22;5696;50.928;6.960;2022-07-06T17:54:01;23.70;57.60
11280;DHT22;5696;50.928;6.960;2022-07-06T17:56:26;23.70;57.60
11280;DHT22;5696;50.928;6.960;2022-07-06T17:58:53;23.60;57.90
11280;DHT22;5696;50.928;6.960;2022-07-06T18:01:19;23.60;58.30
11280;DHT22;5696;50.928;6.960;2022-07-06T18:03:45;23.60;58.60
11280;DHT22;5696;50.928;6.960;2022-07-06T18:06:10;23.70;58.30
11280;DHT22;5696;50.928;6.960;2022-07-06T18:08:36;23.80;58.50
11280;DHT22;5696;50.928;6.960;2022-07-06T18:11:04;23.70;58.40
11280;DHT22;5696;50.928;6.960;2022-07-06T18:13:30;23.70;58.60
11280;DHT22;5696;50.928;6.960;2022-07-06T18:15:56;23.70;59.00
11280;DHT22;5696;50.928;6.960;2022-07-06T18:18:23;23.60;59.00
11280;DHT22;5696;50.928;6.960;2022-07-06T18:20:52;23.60;58.80
11280;DHT22;5696;50.928;6.960;2022-07-06T18:23:20;23.50;59.30
11280;DHT22;5696;50.928;6.960;2022-07-06T18:25:46;23.40;59.80
11280;DHT22;5696;50.928;6.960;2022-07-06T18:28:12;23.30;59.80
11280;DHT22;5696;50.928;6.960;2022-07-06T18:30:45;23.20;59.90
11280;DHT22;5696;50.928;6.960;2022-07-06T18:33:12;23.10;60.40
11280;DHT22;5696;50.928;6.960;2022-07-06T18:35:37;23.00;61.00
11280;DHT22;5696;50.928;6.960;2022-07-06T18:38:07;23.00;60.70
11280;DHT22;5696;50.928;6.960;2022-07-06T18:40:33;22.90;61.10
11280;DHT22;5696;50.928;6.960;2022-07-06T18:43:01;22.90;61.60
11280;DHT22;5696;50.928;6.960;2022-07-06T18:45:27;22.90;61.80
11280;DHT22;5696;50.928;6.960;2022-07-06T18:47:54;22.80;62.00
11280;DHT22;5696;50.928;6.960;2022-07-06T18:50:20;22.70;62.20
11280;DHT22;5696;50.928;6.960;2022-07-06T18:52:46;22.70;62.20
11280;DHT22;5696;50.928;6.960;2022-07-06T18:55:12;22.60;62.40
11280;DHT22;5696;50.928;6.960;2022-07-06T18:57:38;22.50;62.70
11280;DHT22;5696;50.928;6.960;2022-07-06T19:00:05;22.50;63.10
11280;DHT22;5696;50.928;6.960;2022-07-06T19:02:32;22.50;63.70
11280;DHT22;5696;50.928;6.960;2022-07-06T19:04:58;22.40;63.80
11280;DHT22;5696;50.928;6.960;2022-07-06T19:07:23;22.40;64.20
11280;DHT22;5696;50.928;6.960;2022-07-06T19:09:49;22.30;64.40
11280;DHT22;5696;50.928;6.960;2022-07-06T19:12:15;22.30;64.70
11280;DHT22;5696;50.928;6.960;2022-07-06T19:14:40;22.30;65.30
11280;DHT22;5696;50.928;6.960;2022-07-06T19:17:06;22.30;65.70
11280;DHT22;5696;50.928;6.960;2022-07-06T19:19:32;22.20;65.50
11280;DHT22;5696;50.928;6.960;2022-07-06T19:21:57;22.20;65.90
11280;DHT22;5696;50.928;6.960;2022-07-06T19:24:23;22.20;66.10
11280;DHT22;5696;50.928;6.960;2022-07-06T19:26:49;22.10;66.50
11280;DHT22;5696;50.928;6.960;2022-07-06T19:29:15;22.10;66.80
11280;DHT22;5696;50.928;6.960;2022-07-06T19:31:40;22.10;67.40
11280;DHT22;5696;50.928;6.960;2022-07-06T19:34:06;22.10;68.20
11280;DHT22;5696;50.928;6.960;2022-07-06T19:36:32;22.10;67.40
11280;DHT22;5696;50.928;6.960;2022-07-06T19:38:58;22.00;67.80
11280;DHT22;5696;50.928;6.960;2022-07-06T19:41:24;22.10;68.40
11280;DHT22;5696;50.928;6.960;2022-07-06T19:43:51;22.00;68.40
11280;DHT22;5696;50.928;6.960;2022-07-06T19:46:16;22.00;68.80
11280;DHT22;5696;50.928;6.960;2022-07-06T19:48:42;21.90;69.20
11280;DHT22;5696;50.928;6.960;2022-07-06T19:51:08;21.80;70.50
11280;DHT22;5696;50.928;6.960;2022-07-06T19:53:37;21.70;70.30
11280;DHT22;5696;50.928;6.960;2022-07-06T19:56:03;21.60;70.60
11280;DHT22;5696;50.928;6.960;2022-07-06T19:58:29;21.60;71.10
11280;DHT22;5696;50.928;6.960;2022-07-06T20:00:55;21.60;71.60
11280;DHT22;5696;50.928;6.960;2022-07-06T20:03:23;21.50;72.00
11280;DHT22;5696;50.928;6.960;2022-07-06T20:05:51;21.50;72.40
11280;DHT22;5696;50.928;6.960;2022-07-06T20:08:17;21.40;72.90
11280;DHT22;5696;50.928;6.960;2022-07-06T20:10:43;21.30;73.50
11280;DHT22;5696;50.928;6.960;2022-07-06T20:13:09;21.20;73.80
11280;DHT22;5696;50.928;6.960;2022-07-06T20:15:35;21.20;74.20
11280;DHT22;5696;50.928;6.960;2022-07-06T20:18:00;21.10;74.80
11280;DHT22;5696;50.928;6.960;2022-07-06T20:20:27;21.10;75.40
11280;DHT22;5696;50.928;6.960;2022-07-06T20:22:52;21.20;75.80
11280;DHT22;5696;50.928;6.960;2022-07-06T20:25:18;21.20;76.00
11280;DHT22;5696;50.928;6.960;2022-07-06T20:27:44;21.20;76.20
11280;DHT22;5696;50.928;6.960;2022-07-06T20:30:11;21.20;76.00
11280;DHT22;5696;50.928;6.960;2022-07-06T20:32:37;21.20;76.20
11280;DHT22;5696;50.928;6.960;2022-07-06T20:35:04;21.20;76.70
11280;DHT22;5696;50.928;6.960;2022-07-06T20:37:30;21.20;76.80
11280;DHT22;5696;50.928;6.960;2022-07-06T20:39:56;21.20;77.00
11280;DHT22;5696;50.928;6.960;2022-07-06T20:42:22;21.20;77.00
11280;DHT22;5696;50.928;6.960;2022-07-06T20:44:48;21.20;77.20
11280;DHT22;5696;50.928;6.960;2022-07-06T20:47:14;21.20;77.40
11280;DHT22;5696;50.928;6.960;2022-07-06T20:49:41;21.20;77.90
11280;DHT22;5696;50.928;6.960;2022-07-06T20:52:07;21.20;78.30
11280;DHT22;5696;50.928;6.960;2022-07-06T20:54:33;21.20;78.30